Time;durP1;ratioP1;P1;durP2;ratioP2;P2;SDS_P1;SDS_P2;PMS_P1;PMS_P2;Temp;Humidity;BMP_temperature;BMP_pressure;BME280_temperature;BME280_humidity;BME280_pressure;Samples;Min_cycle;Max_cycle;Signal;HPM_P1;HPM_P2
2021/03/24 00:01:00;;;;;;;36.23;14.37;;;;;;;-1.01;100.00;94509.41;5096088;28;20657;-76
2021/03/24 00:03:28;;;;;;;44.87;14.53;;;;;;;-1.14;100.00;94502.59;5095917;28;20247;-77
2021/03/24 00:05:54;;;;;;;37.27;14.60;;;;;;;-1.18;100.00;94511.44;5096086;28;20243;-75
2021/03/24 00:08:21;;;;;;;34.33;13.97;;;;;;;-1.31;100.00;94506.38;5095852;28;20208;-76
2021/03/24 00:10:48;;;;;;;35.60;13.10;;;;;;;-0.95;100.00;94501.25;5095587;28;20220;-74
2021/03/24 00:13:17;;;;;;;34.63;13.73;;;;;;;-0.87;100.00;94503.25;5096025;28;20205;-75
2021/03/24 00:15:43;;;;;;;43.53;14.67;;;;;;;-0.95;100.00;94502.06;5095776;28;20198;-75
2021/03/24 00:18:10;;;;;;;43.38;16.15;;;;;;;-1.00;100.00;94508.44;5095463;28;20597;-75
2021/03/24 00:20:40;;;;;;;39.60;15.77;;;;;;;-0.93;100.00;94500.22;5095771;28;20290;-75
2021/03/24 00:23:06;;;;;;;42.10;14.63;;;;;;;-0.91;100.00;94501.88;5095534;28;20668;-76
2021/03/24 00:25:32;;;;;;;40.13;14.43;;;;;;;-0.90;100.00;94504.28;5095839;28;20553;-75
2021/03/24 00:27:59;;;;;;;42.83;14.63;;;;;;;-0.86;100.00;94495.44;5095744;28;20629;-76
2021/03/24 00:30:30;;;;;;;44.43;14.77;;;;;;;-0.79;100.00;94493.25;5095656;28;20201;-76
2021/03/24 00:32:56;;;;;;;44.00;15.57;;;;;;;-0.69;100.00;94495.97;5095391;28;20600;-75
2021/03/24 00:35:23;;;;;;;41.00;14.40;;;;;;;-0.76;100.00;94496.41;5095511;28;20307;-76
2021/03/24 00:37:53;;;;;;;42.10;14.27;;;;;;;-0.88;100.00;94499.03;5095351;28;20545;-75
2021/03/24 00:40:22;;;;;;;36.70;14.30;;;;;;;-1.00;100.00;94493.91;5095480;28;20237;-76
2021/03/24 00:42:48;;;;;;;38.70;13.87;;;;;;;-1.09;100.00;94493.75;5095409;28;20202;-76
2021/03/24 00:45:15;;;;;;;38.37;14.33;;;;;;;-1.08;100.00;94493.66;5095301;28;20209;-76
2021/03/24 00:47:42;;;;;;;36.07;14.40;;;;;;;-1.13;100.00;94486.31;5095283;28;20206;-75
2021/03/24 00:50:09;;;;;;;42.57;15.57;;;;;;;-1.10;100.00;94484.44;5095111;28;20197;-75
2021/03/24 00:52:35;;;;;;;40.20;15.77;;;;;;;-0.94;100.00;94479.81;5095042;28;20206;-76
2021/03/24 00:55:03;;;;;;;46.97;14.77;;;;;;;-1.05;100.00;94483.19;5095153;28;20206;-75
2021/03/24 00:57:29;;;;;;;43.30;14.47;;;;;;;-1.20;100.00;94477.44;5095085;28;20198;-76
2021/03/24 00:59:55;;;;;;;39.20;13.40;;;;;;;-1.33;100.00;94481.81;5093883;28;20226;-76
2021/03/24 01:02:21;;;;;;;38.40;15.13;;;;;;;-1.29;100.00;94477.28;5095102;28;20205;-76
2021/03/24 01:04:47;;;;;;;40.83;14.00;;;;;;;-1.40;100.00;94478.88;5094748;28;20288;-75
2021/03/24 01:07:14;;;;;;;38.23;15.03;;;;;;;-1.38;100.00;94474.44;5094595;28;20202;-75
2021/03/24 01:09:40;;;;;;;35.57;13.83;;;;;;;-1.49;100.00;94474.41;5094947;28;20284;-75
2021/03/24 01:12:08;;;;;;;35.77;13.07;;;;;;;-1.53;100.00;94471.25;5094838;28;20201;-76
2021/03/24 01:14:34;;;;;;;44.40;14.70;;;;;;;-1.58;100.00;94473.31;5094660;28;20231;-76
2021/03/24 01:17:00;;;;;;;38.53;14.47;;;;;;;-1.54;100.00;94476.47;5094537;28;20680;-76
2021/03/24 01:19:26;;;;;;;51.40;18.55;;;;;;;-1.53;100.00;94473.81;5093982;28;20509;-76
2021/03/24 01:21:52;;;;;;;43.07;16.27;;;;;;;-1.54;100.00;94471.34;5094714;28;20202;-75
2021/03/24 01:24:19;;;;;;;51.33;15.57;;;;;;;-1.54;100.00;94474.72;5094557;28;20628;-76
2021/03/24 01:26:45;;;;;;;49.20;17.30;;;;;;;-1.49;100.00;94469.28;5094552;28;20194;-75
2021/03/24 01:29:11;;;;;;;45.27;15.73;;;;;;;-1.61;100.00;94468.41;5094315;28;20240;-75
2021/03/24 01:31:37;;;;;;;38.37;14.13;;;;;;;-1.66;100.00;94475.59;5094416;28;20203;-76
2021/03/24 01:34:03;;;;;;;36.77;14.23;;;;;;;-1.82;100.00;94475.06;5094064;28;20341;-75
2021/03/24 01:36:30;;;;;;;37.10;13.40;;;;;;;-2.02;100.00;94474.69;5094488;28;20206;-76
2021/03/24 01:38:57;;;;;;;40.07;13.63;;;;;;;-2.23;100.00;94466.78;5094208;28;20225;-76
2021/03/24 01:41:26;;;;;;;35.70;13.97;;;;;;;-2.17;100.00;94470.66;5094214;28;20206;-75
2021/03/24 01:43:55;;;;;;;40.33;14.07;;;;;;;-2.16;100.00;94472.31;5094121;28;20194;-75
2021/03/24 01:46:43;;;;;;;45.17;15.60;;;;;;;-2.08;100.00;94465.72;5094124;28;20209;-75
2021/03/24 01:49:20;;;;;;;54.30;16.27;;;;;;;-2.06;100.00;94458.75;5093930;28;20228;-75
2021/03/24 01:51:49;;;;;;;46.73;15.50;;;;;;;-2.03;100.00;94460.28;5094196;28;20201;-76
2021/03/24 01:54:18;;;;;;;56.87;18.10;;;;;;;-1.94;100.00;94454.50;5093980;28;20672;-74
2021/03/24 01:56:47;;;;;;;44.37;15.37;;;;;;;-1.89;100.00;94460.13;5093891;28;20208;-75
2021/03/24 01:59:14;;;;;;;55.40;17.00;;;;;;;-1.96;100.00;94453.81;5093648;28;20278;-77
2021/03/24 02:01:41;;;;;;;46.63;16.07;;;;;;;-2.00;100.00;94449.81;5093961;28;20220;-75
2021/03/24 02:04:08;;;;;;;50.23;15.77;;;;;;;-2.01;100.00;94461.00;5093812;28;20209;-75
2021/03/24 02:06:41;;;;;;;43.17;15.13;;;;;;;-2.25;100.00;94451.56;5093790;28;20209;-75
2021/03/24 02:09:24;;;;;;;42.93;15.57;;;;;;;-2.10;100.00;94457.34;5093659;28;20565;-75
2021/03/24 02:11:56;;;;;;;54.63;16.97;;;;;;;-1.94;100.00;94454.50;5093165;28;20987;-75
2021/03/24 02:14:26;;;;;;;54.67;16.90;;;;;;;-1.91;100.00;94453.50;5093564;28;20206;-75
2021/03/24 02:16:54;;;;;;;45.03;15.37;;;;;;;-1.93;100.00;94447.66;5093627;28;20546;-76
2021/03/24 02:19:37;;;;;;;47.47;16.53;;;;;;;-2.01;100.00;94461.00;5093378;28;20225;-74
2021/03/24 02:22:06;;;;;;;49.50;16.80;;;;;;;-1.88;100.00;94456.66;5093312;28;20243;-75
2021/03/24 02:24:39;;;;;;;54.87;17.20;;;;;;;-1.81;100.00;94457.03;5093540;28;20364;-76
2021/03/24 02:27:10;;;;;;;49.23;16.33;;;;;;;-1.83;100.00;94452.94;5093501;28;20209;-75
2021/03/24 02:29:40;;;;;;;44.20;15.27;;;;;;;-1.96;100.00;94448.69;5093433;28;20201;-75
2021/03/24 02:32:11;;;;;;;47.33;16.00;;;;;;;-2.03;100.00;94442.38;5093365;28;20201;-74
2021/03/24 02:34:39;;;;;;;47.63;14.43;;;;;;;-2.07;100.00;94441.75;5093231;28;20210;-74
2021/03/24 02:37:07;;;;;;;46.17;15.47;;;;;;;-2.02;100.00;94449.13;5093208;28;20652;-75
2021/03/24 02:39:34;;;;;;;40.17;13.87;;;;;;;-2.21;100.00;94434.25;5093155;28;20233;-76
2021/03/24 02:42:04;;;;;;;36.07;14.10;;;;;;;-2.39;100.00;94438.06;5093311;28;20220;-75
2021/03/24 02:44:33;;;;;;;37.83;13.80;;;;;;;-2.44;100.00;94438.38;5093156;28;20198;-76
2021/03/24 02:47:01;;;;;;;38.93;14.00;;;;;;;-2.39;100.00;94444.00;5090651;28;20197;-75
2021/03/24 02:49:30;;;;;;;40.67;15.83;;;;;;;-2.39;100.00;94441.44;5084985;28;20198;-76
2021/03/24 02:51:57;;;;;;;41.90;14.27;;;;;;;-2.50;100.00;94449.03;5093163;28;20204;-76
2021/03/24 02:54:28;;;;;;;35.27;12.67;;;;;;;-2.55;100.00;94451.06;5091357;28;20204;-76
2021/03/24 02:56:54;;;;;;;50.20;18.60;;;;;;;-2.70;100.00;94456.28;5091842;28;20436;-76
2021/03/24 02:59:21;;;;;;;40.77;14.50;;;;;;;-2.83;100.00;94452.94;5092781;28;20233;-75
2021/03/24 03:01:54;;;;;;;39.13;14.13;;;;;;;-2.90;100.00;94461.94;5092888;28;20202;-75
2021/03/24 03:04:27;;;;;;;38.00;13.43;;;;;;;-3.04;100.00;94461.09;5092999;28;20239;-76
2021/03/24 03:06:56;;;;;;;32.13;12.00;;;;;;;-3.05;100.00;94456.94;5093029;28;20198;-75
2021/03/24 03:09:29;;;;;;;34.17;13.17;;;;;;;-3.19;100.00;94451.91;5092877;28;20265;-76
2021/03/24 03:12:00;;;;;;;36.60;13.90;;;;;;;-3.07;100.00;94445.97;5093270;28;20648;-75
2021/03/24 03:14:36;;;;;;;30.83;12.37;;;;;;;-3.19;100.00;94457.00;5092991;28;20212;-74
2021/03/24 03:17:08;;;;;;;38.60;12.40;;;;;;;-3.24;100.00;94451.38;5092670;28;20209;-75
2021/03/24 03:19:38;;;;;;;44.33;13.63;;;;;;;-3.08;100.00;94446.91;5092709;28;20396;-75
2021/03/24 03:22:07;;;;;;;34.47;12.90;;;;;;;-3.09;100.00;94452.94;5092758;28;20205;-75
2021/03/24 03:24:40;;;;;;;33.90;11.20;;;;;;;-3.20;100.00;94455.38;5095254;28;20316;-75
2021/03/24 03:27:10;;;;;;;31.13;13.20;;;;;;;-3.09;100.00;94452.94;5096963;28;20198;-75
2021/03/24 03:29:37;;;;;;;44.83;13.80;;;;;;;-3.06;100.00;94457.03;5097214;28;20194;-75
2021/03/24 03:32:06;;;;;;;37.30;14.13;;;;;;;-2.89;100.00;94458.47;5096617;28;20664;-75
2021/03/24 03:34:34;;;;;;;38.23;13.57;;;;;;;-2.88;100.00;94455.81;5096406;28;20692;-76
2021/03/24 03:37:01;;;;;;;48.43;14.43;;;;;;;-2.70;100.00;94453.75;5096442;28;20201;-75
2021/03/24 03:39:29;;;;;;;37.77;13.90;;;;;;;-2.78;100.00;94448.34;5096622;28;20229;-75
2021/03/24 03:41:59;;;;;;;40.90;14.03;;;;;;;-2.98;100.00;94460.72;5096364;28;20672;-75
2021/03/24 03:44:29;;;;;;;38.83;13.50;;;;;;;-3.01;100.00;94455.78;5096535;28;20197;-75
2021/03/24 03:46:58;;;;;;;34.53;12.47;;;;;;;-3.14;100.00;94454.97;5096398;28;20208;-77
2021/03/24 03:49:25;;;;;;;35.07;12.97;;;;;;;-3.13;100.00;94451.50;5096286;28;20202;-74
2021/03/24 03:52:04;;;;;;;36.27;12.80;;;;;;;-3.08;100.00;94454.56;5096337;28;20300;-76
2021/03/24 03:54:35;;;;;;;42.50;13.73;;;;;;;-3.02;100.00;94449.03;5096384;28;20541;-75
2021/03/24 03:57:05;;;;;;;36.53;13.37;;;;;;;-3.12;100.00;94447.22;5096265;28;20202;-76
2021/03/24 03:59:38;;;;;;;41.23;13.27;;;;;;;-3.12;100.00;94448.03;5095764;28;20225;-75
2021/03/24 04:02:09;;;;;;;36.87;13.20;;;;;;;-3.13;100.00;94446.41;5095956;28;20202;-75
2021/03/24 04:04:40;;;;;;;42.87;14.60;;;;;;;-3.15;100.00;94448.22;5096223;28;20209;-75
2021/03/24 04:07:14;;;;;;;36.20;13.90;;;;;;;-3.01;100.00;94440.47;5096138;28;20210;-75
2021/03/24 04:09:45;;;;;;;41.97;13.57;;;;;;;-3.07;100.00;94443.41;5095873;28;20205;-75
2021/03/24 04:12:15;;;;;;;38.13;13.87;;;;;;;-3.09;100.00;94444.47;5095813;28;20668;-75
2021/03/24 04:14:43;;;;;;;41.10;13.87;;;;;;;-3.07;100.00;94445.97;5096118;28;20206;-75
2021/03/24 04:17:10;;;;;;;48.30;14.73;;;;;;;-2.99;100.00;94443.72;5095740;28;20198;-74
2021/03/24 04:19:42;;;;;;;39.53;12.90;;;;;;;-2.89;100.00;94443.13;5095715;28;20614;-75
2021/03/24 04:22:08;;;;;;;46.07;15.73;;;;;;;-2.88;100.00;94444.75;5095810;28;20198;-77
2021/03/24 04:24:38;;;;;;;44.73;14.60;;;;;;;-2.91;100.00;94439.88;5095643;28;20200;-75
2021/03/24 04:27:08;;;;;;;40.90;14.73;;;;;;;-2.99;100.00;94448.03;5095429;28;20296;-74
2021/03/24 04:29:39;;;;;;;62.75;21.67;;;;;;;-2.94;100.00;94448.53;5094931;28;20432;-75
2021/03/24 04:32:09;;;;;;;49.47;16.23;;;;;;;-2.94;100.00;94435.78;5095633;28;20202;-75
2021/03/24 04:34:36;;;;;;;40.37;14.70;;;;;;;-2.90;100.00;94451.72;5095096;28;20206;-75
2021/03/24 04:37:08;;;;;;;43.57;14.43;;;;;;;-3.00;100.00;94438.72;5094815;28;20322;-74
2021/03/24 04:39:37;;;;;;;41.23;15.27;;;;;;;-3.02;100.00;94436.28;5095279;28;20225;-76
2021/03/24 04:42:09;;;;;;;40.10;13.13;;;;;;;-3.08;100.00;94438.41;5095486;28;20198;-75
2021/03/24 04:44:39;;;;;;;39.03;13.63;;;;;;;-3.04;100.00;94433.00;5095477;28;20202;-75
2021/03/24 04:47:08;;;;;;;45.97;14.77;;;;;;;-3.04;100.00;94440.66;5095322;28;20201;-75
2021/03/24 04:49:52;;;;;;;41.97;14.43;;;;;;;-3.04;100.00;94435.56;5095152;28;20686;-75
2021/03/24 04:52:20;;;;;;;36.83;13.37;;;;;;;-3.05;100.00;94433.94;5095318;28;20198;-75
2021/03/24 04:54:48;;;;;;;43.33;14.07;;;;;;;-3.01;100.00;94435.38;5095290;28;20205;-75
2021/03/24 04:57:17;;;;;;;40.57;14.07;;;;;;;-3.02;100.00;94433.72;5095164;28;20198;-76
2021/03/24 04:59:47;;;;;;;40.33;14.17;;;;;;;-2.91;100.00;94434.75;5095057;28;20324;-77
2021/03/24 05:02:18;;;;;;;48.03;15.07;;;;;;;-2.81;100.00;94441.69;5094506;28;20209;-77
2021/03/24 05:04:50;;;;;;;42.57;14.60;;;;;;;-2.79;100.00;94428.81;5094646;28;20229;-76
2021/03/24 05:07:31;;;;;;;40.47;13.27;;;;;;;-2.87;100.00;94437.00;5094819;28;20251;-76
2021/03/24 05:09:59;;;;;;;67.95;21.70;;;;;;;-2.86;100.00;94432.72;5093995;28;20461;-75
2021/03/24 05:12:28;;;;;;;40.13;14.20;;;;;;;-2.92;100.00;94435.66;5094671;28;20227;-75
2021/03/24 05:15:00;;;;;;;40.87;14.23;;;;;;;-3.06;100.00;94437.41;5094505;28;20204;-75
2021/03/24 05:17:28;;;;;;;42.93;14.03;;;;;;;-3.01;100.00;94450.69;5094641;28;20691;-75
2021/03/24 05:19:59;;;;;;;42.83;14.77;;;;;;;-3.09;100.00;94445.28;5094465;28;20233;-75
2021/03/24 05:22:30;;;;;;;52.07;19.23;;;;;;;-3.09;100.00;94447.00;5093475;28;20429;-75
2021/03/24 05:25:01;;;;;;;40.83;14.17;;;;;;;-3.03;100.00;94447.44;5094508;28;20201;-74
2021/03/24 05:27:33;;;;;;;37.60;14.23;;;;;;;-3.06;100.00;94450.19;5094440;28;20247;-75
2021/03/24 05:30:07;;;;;;;36.90;12.70;;;;;;;-2.90;100.00;94449.16;5094685;28;20202;-75
2021/03/24 05:32:40;;;;;;;27.70;10.73;;;;;;;-2.92;100.00;94454.38;5094295;28;20236;-75
2021/03/24 05:35:24;;;;;;;44.53;12.53;;;;;;;-2.87;100.00;94462.53;5094329;28;20197;-74
2021/03/24 05:37:51;;;;;;;38.13;11.97;;;;;;;-2.85;100.00;94454.78;5094173;28;20255;-76
2021/03/24 05:40:36;;;;;;;37.53;13.93;;;;;;;-2.76;100.00;94461.00;5094380;28;20226;-75
2021/03/24 05:43:18;;;;;;;37.13;12.30;;;;;;;-2.73;100.00;94453.97;5092987;28;20236;-75
2021/03/24 05:45:49;;;;;;;42.10;13.87;;;;;;;-2.65;100.00;94445.78;5094125;28;20556;-74
2021/03/24 05:48:47;;;;;;;39.60;12.53;;;;;;;-2.69;100.00;94445.16;5093832;28;20194;-75
2021/03/24 05:51:36;;;;;;;37.90;13.77;;;;;;;-2.58;100.00;94438.50;5093897;28;20244;-75
2021/03/24 05:54:31;;;;;;;45.57;14.80;;;;;;;-2.59;100.00;94444.56;5093924;28;20671;-74
2021/03/24 05:57:16;;;;;;;44.00;13.70;;;;;;;-2.50;100.00;94452.41;5093483;28;20197;-74
2021/03/24 05:59:56;;;;;;;57.53;19.20;;;;;;;-2.35;100.00;94453.09;5093065;28;20463;-77
2021/03/24 06:02:39;;;;;;;43.63;14.70;;;;;;;-2.35;100.00;94454.84;5093713;28;20288;-76
2021/03/24 06:05:11;;;;;;;38.80;13.77;;;;;;;-2.31;100.00;94459.63;5094025;28;20202;-75
2021/03/24 06:08:02;;;;;;;43.13;13.97;;;;;;;-2.21;100.00;94461.53;5093743;28;20276;-75
2021/03/24 06:10:43;;;;;;;37.73;13.53;;;;;;;-2.31;100.00;94467.31;5093621;28;20656;-75
2021/03/24 06:13:26;;;;;;;37.63;13.00;;;;;;;-2.26;100.00;94469.56;5093597;28;20206;-75
2021/03/24 06:16:06;;;;;;;40.83;13.43;;;;;;;-2.20;100.00;94473.41;5093529;28;20206;-74
2021/03/24 06:18:49;;;;;;;41.53;13.97;;;;;;;-2.17;100.00;94470.66;5093591;28;20202;-75
2021/03/24 06:21:24;;;;;;;42.97;15.07;;;;;;;-2.15;100.00;94467.06;5093566;28;20206;-75
2021/03/24 06:24:05;;;;;;;49.37;14.53;;;;;;;-2.03;100.00;94470.53;5093562;28;20285;-75
2021/03/24 06:26:46;;;;;;;54.43;17.43;;;;;;;-1.95;100.00;94465.69;5093398;28;20561;-75
2021/03/24 06:29:25;;;;;;;58.53;17.77;;;;;;;-1.84;100.00;94466.69;5093420;28;20202;-75
2021/03/24 06:32:07;;;;;;;53.97;17.43;;;;;;;-1.58;100.00;94463.09;5093273;28;20202;-74
2021/03/24 06:35:02;;;;;;;49.70;15.63;;;;;;;-1.57;100.00;94467.25;5093425;28;20233;-75
2021/03/24 06:37:44;;;;;;;41.90;14.37;;;;;;;-1.33;100.00;94463.88;5093301;28;20296;-75
2021/03/24 06:40:27;;;;;;;55.57;16.37;;;;;;;-1.08;100.00;94460.34;5093006;28;20320;-75
2021/03/24 06:43:06;;;;;;;49.70;16.13;;;;;;;-0.97;100.00;94464.66;5093318;28;20205;-74
2021/03/24 06:45:54;;;;;;;42.00;14.60;;;;;;;-1.06;100.00;94462.81;5093263;28;20285;-75
2021/03/24 06:48:38;;;;;;;40.90;13.97;;;;;;;-0.96;100.00;94469.69;5093011;28;20202;-75
2021/03/24 06:51:36;;;;;;;39.83;13.30;;;;;;;-0.61;100.00;94468.81;5093331;28;20202;-74
2021/03/24 06:54:24;;;;;;;44.13;14.30;;;;;;;-0.52;100.00;94467.28;5093076;28;20236;-75
2021/03/24 06:57:17;;;;;;;33.27;12.87;;;;;;;-0.50;100.00;94475.72;5093012;28;20198;-75
2021/03/24 07:00:14;;;;;;;50.60;14.87;;;;;;;-0.23;100.00;94477.91;5092504;28;20225;-75
2021/03/24 07:03:06;;;;;;;50.97;15.20;;;;;;;-0.08;100.00;94472.56;5088850;28;20270;-75
2021/03/24 07:05:48;;;;;;;37.73;12.73;;;;;;;-0.04;100.00;94476.50;5092864;28;20194;-75
2021/03/24 07:08:44;;;;;;;40.43;12.27;;;;;;;0.06;100.00;94471.47;5092405;28;20285;-74
2021/03/24 07:11:28;;;;;;;37.00;10.90;;;;;;;0.21;100.00;94472.03;5091592;28;20198;-74
2021/03/24 07:14:23;;;;;;;30.83;9.10;;;;;;;0.29;100.00;94477.38;5093088;28;20209;-75
2021/03/24 07:17:16;;;;;;;29.93;9.33;;;;;;;0.40;100.00;94473.97;5037957;28;20569;-75
2021/03/24 07:19:57;;;;;;;20.87;7.80;;;;;;;0.59;100.00;94471.56;5090843;28;20273;-76
2021/03/24 07:22:47;;;;;;;22.90;7.90;;;;;;;0.74;100.00;94467.75;5092864;28;20194;-75
2021/03/24 07:25:27;;;;;;;24.73;8.50;;;;;;;0.92;100.00;94474.94;5093020;28;20206;-75
2021/03/24 07:28:08;;;;;;;22.77;8.63;;;;;;;1.08;100.00;94469.34;5092799;28;20193;-74
2021/03/24 07:31:01;;;;;;;27.67;9.70;;;;;;;1.24;100.00;94468.94;5092869;28;20206;-76
2021/03/24 07:33:36;;;;;;;31.13;9.80;;;;;;;1.43;100.00;94470.78;5092550;28;20226;-74
2021/03/24 07:36:29;;;;;;;34.53;11.43;;;;;;;1.66;100.00;94464.53;5092698;28;20220;-75
2021/03/24 07:39:11;;;;;;;40.63;13.03;;;;;;;1.92;100.00;94474.41;5063644;28;20309;-75
2021/03/24 07:42:01;;;;;;;45.70;16.90;;;;;;;2.12;100.00;94474.47;5091304;28;20900;-77
2021/03/24 07:44:41;;;;;;;36.70;11.90;;;;;;;2.30;100.00;94472.03;5092632;28;20527;-75
2021/03/24 07:47:30;;;;;;;32.33;12.80;;;;;;;2.46;100.00;94480.06;5092798;28;20213;-75
2021/03/24 07:50:04;;;;;;;38.50;11.87;;;;;;;2.66;100.00;94483.50;5092413;28;20206;-75
2021/03/24 07:52:56;;;;;;;30.98;12.77;;;;;;;2.89;100.00;94480.66;5091915;28;20532;-75
2021/03/24 07:55:33;;;;;;;26.47;11.10;;;;;;;3.19;100.00;94484.06;5092207;28;20672;-74
2021/03/24 07:58:31;;;;;;;24.17;9.43;;;;;;;3.38;100.00;94493.50;5092502;28;20259;-74
2021/03/24 08:01:04;;;;;;;23.33;10.20;;;;;;;3.55;100.00;94485.06;5081586;28;20313;-74
2021/03/24 08:03:44;;;;;;;31.37;9.83;;;;;;;3.64;100.00;94488.56;5092434;28;20203;-74
2021/03/24 08:06:32;;;;;;;20.80;9.10;;;;;;;3.90;100.00;94493.94;5092560;28;20202;-74
2021/03/24 08:09:20;;;;;;;23.23;8.77;;;;;;;4.05;100.00;94487.34;5092338;28;20664;-74
2021/03/24 08:11:57;;;;;;;20.40;8.17;;;;;;;4.25;100.00;94487.25;5095020;28;20205;-74
2021/03/24 08:14:40;;;;;;;25.63;8.00;;;;;;;4.45;100.00;94483.59;5096101;28;20675;-74
2021/03/24 08:17:20;;;;;;;27.13;9.77;;;;;;;4.61;100.00;94484.72;5096007;28;20201;-74
2021/03/24 08:19:59;;;;;;;23.77;10.17;;;;;;;4.78;100.00;94494.28;5095852;28;20229;-75
2021/03/24 08:22:38;;;;;;;23.03;9.53;;;;;;;4.95;100.00;94481.50;5095750;28;20537;-75
2021/03/24 08:25:22;;;;;;;25.20;9.47;;;;;;;5.00;100.00;94481.88;5095889;28;20230;-75
2021/03/24 08:27:55;;;;;;;25.03;8.53;;;;;;;5.06;100.00;94483.03;5095820;28;20206;-74
2021/03/24 08:30:26;;;;;;;17.07;7.57;;;;;;;5.10;100.00;94492.94;5095694;28;20213;-75
2021/03/24 08:33:16;;;;;;;19.73;7.83;;;;;;;5.23;100.00;94490.00;5095603;28;20230;-75
2021/03/24 08:36:01;;;;;;;18.93;7.47;;;;;;;5.33;100.00;94487.31;5095467;28;20205;-75
2021/03/24 08:38:46;;;;;;;22.73;7.30;;;;;;;5.38;100.00;94482.50;5095543;28;20266;-75
2021/03/24 08:41:50;;;;;;;17.90;8.33;;;;;;;5.42;100.00;94480.41;5095208;28;20676;-75
2021/03/24 08:44:21;;;;;;;16.87;7.40;;;;;;;5.51;100.00;94477.72;5095269;28;20652;-75
2021/03/24 08:46:55;;;;;;;15.90;7.57;;;;;;;5.69;97.73;94477.66;5095165;28;20688;-75
2021/03/24 08:49:25;;;;;;;14.27;7.53;;;;;;;5.72;97.81;94476.56;5095272;28;20201;-74
2021/03/24 08:52:00;;;;;;;13.57;6.57;;;;;;;5.76;95.76;94464.91;5095174;28;20656;-76
2021/03/24 08:54:51;;;;;;;14.03;6.70;;;;;;;5.73;94.62;94471.22;5095291;28;20205;-75
2021/03/24 08:57:31;;;;;;;14.00;6.60;;;;;;;5.89;90.81;94467.88;5095091;28;20248;-77
2021/03/24 09:00:11;;;;;;;14.50;6.43;;;;;;;6.02;90.18;94475.28;5094915;28;20229;-76
2021/03/24 09:02:52;;;;;;;15.53;7.30;;;;;;;5.92;89.53;94477.94;5094987;28;20251;-76
2021/03/24 09:05:25;;;;;;;15.97;6.57;;;;;;;6.14;85.25;94478.41;5095037;28;20209;-75
2021/03/24 09:08:03;;;;;;;10.73;5.47;;;;;;;6.11;85.72;94476.13;5094976;28;20245;-75
2021/03/24 09:10:43;;;;;;;14.67;5.60;;;;;;;6.11;84.74;94474.38;5094255;28;20202;-76
2021/03/24 09:13:17;;;;;;;11.40;5.37;;;;;;;6.25;86.42;94478.13;5094944;28;20542;-75
2021/03/24 09:16:02;;;;;;;12.77;5.23;;;;;;;6.41;82.93;94472.22;5094897;28;20209;-75
2021/03/24 09:21:00;;;;;;;11.67;4.70;;;;;;;6.61;84.00;94472.75;5110822;27;21023;-78
2021/03/24 09:23:53;;;;;;;9.57;4.27;;;;;;;6.69;83.40;94474.53;5110733;28;20594;-75
2021/03/24 09:26:39;;;;;;;12.83;4.70;;;;;;;6.85;80.80;94471.97;5110644;28;20557;-77
2021/03/24 09:29:21;;;;;;;11.83;5.07;;;;;;;6.92;84.25;94471.34;5110718;28;20197;-77
2021/03/24 09:32:16;;;;;;;11.02;5.68;;;;;;;7.15;81.73;94471.53;5109455;28;20910;-76
2021/03/24 09:34:57;;;;;;;15.40;6.03;;;;;;;7.17;81.97;94466.97;5110400;28;20887;-76
2021/03/24 09:37:30;;;;;;;13.60;6.00;;;;;;;7.30;77.12;94459.50;5110260;28;20197;-75
2021/03/24 09:39:59;;;;;;;9.20;4.80;;;;;;;7.29;75.43;94457.88;5110567;28;20229;-75
2021/03/24 09:42:29;;;;;;;9.57;4.27;;;;;;;7.35;77.10;94459.81;5110508;28;20208;-76
2021/03/24 09:45:06;;;;;;;12.43;5.00;;;;;;;7.49;79.13;94449.75;5110296;28;20198;-76
2021/03/24 09:47:54;;;;;;;10.00;5.07;;;;;;;7.43;76.41;94447.78;5100484;28;20721;-75
2021/03/24 09:50:28;;;;;;;10.40;5.37;;;;;;;7.46;80.59;94450.06;5109181;28;20205;-76
2021/03/24 09:52:59;;;;;;;11.53;5.27;;;;;;;7.57;79.62;94444.53;5109958;28;20697;-77
2021/03/24 09:55:30;;;;;;;10.00;5.70;;;;;;;7.71;78.05;94445.63;5110160;28;20250;-76
2021/03/24 09:58:17;;;;;;;10.43;5.17;;;;;;;7.74;80.17;94447.91;5109461;28;20236;-76
2021/03/24 10:00:54;;;;;;;11.43;4.87;;;;;;;7.88;71.96;94449.03;5110325;28;20204;-76
2021/03/24 10:03:32;;;;;;;8.00;3.90;;;;;;;7.98;70.27;94449.63;5109956;28;20201;-77
2021/03/24 10:06:00;;;;;;;10.00;4.87;;;;;;;7.89;73.21;94442.84;5109559;28;20201;-79
2021/03/24 10:08:34;;;;;;;12.27;6.00;;;;;;;7.83;75.22;94440.91;5109605;28;20202;-78
2021/03/24 10:11:05;;;;;;;11.33;4.67;;;;;;;7.99;70.57;94448.66;5109696;28;20667;-76
2021/03/24 10:13:37;;;;;;;9.37;4.80;;;;;;;8.09;74.61;94451.88;5109946;28;20546;-76
2021/03/24 10:16:13;;;;;;;10.57;5.20;;;;;;;8.19;72.49;94450.84;5109860;28;20205;-77
2021/03/24 10:18:46;;;;;;;11.23;5.20;;;;;;;8.27;71.83;94443.81;5109539;28;20286;-76
2021/03/24 10:21:16;;;;;;;10.23;4.93;;;;;;;8.28;71.49;94439.44;5109577;28;20208;-76
2021/03/24 10:23:47;;;;;;;9.53;4.70;;;;;;;8.31;72.00;94434.72;5109848;28;20201;-76
2021/03/24 10:26:16;;;;;;;8.47;4.30;;;;;;;8.49;70.69;94438.88;5109591;28;20208;-76
2021/03/24 10:28:50;;;;;;;12.73;5.70;;;;;;;8.58;75.39;94439.66;5109541;28;20198;-76
2021/03/24 10:31:21;;;;;;;12.13;5.40;;;;;;;8.69;73.37;94434.03;5099411;28;20560;-76
2021/03/24 10:33:50;;;;;;;14.70;6.03;;;;;;;8.86;72.44;94435.56;5095774;28;20292;-77
2021/03/24 10:36:22;;;;;;;13.87;5.03;;;;;;;9.05;70.32;94431.69;5095874;28;20206;-84
2021/03/24 10:38:54;;;;;;;12.93;5.60;;;;;;;9.10;69.87;94431.16;5095814;28;20261;-80
2021/03/24 10:41:43;;;;;;;11.23;5.73;;;;;;;9.07;70.80;94423.69;5095742;28;20251;-79
2021/03/24 10:44:18;;;;;;;16.13;6.50;;;;;;;9.12;73.48;94423.97;5095560;28;20281;-78
2021/03/24 10:47:03;;;;;;;15.47;6.10;;;;;;;9.22;71.65;94427.16;5095711;28;20228;-76
2021/03/24 10:49:36;;;;;;;12.60;5.60;;;;;;;9.29;71.21;94418.63;5095671;28;20223;-77
2021/03/24 10:52:05;;;;;;;12.37;5.23;;;;;;;9.45;72.95;94414.06;5095569;28;20198;-77
2021/03/24 10:54:34;;;;;;;14.60;6.03;;;;;;;9.49;69.84;94411.13;5095323;28;20194;-76
2021/03/24 10:57:09;;;;;;;11.43;5.47;;;;;;;9.48;69.29;94410.31;5095548;28;20267;-79
2021/03/24 10:59:39;;;;;;;11.80;5.07;;;;;;;9.34;70.98;94401.50;5095457;28;20232;-76
2021/03/24 11:02:20;;;;;;;12.57;4.67;;;;;;;9.44;66.17;94407.25;5095377;28;20606;-78
2021/03/24 11:04:54;;;;;;;10.63;4.80;;;;;;;9.60;68.65;94402.88;5095180;28;20205;-78
2021/03/24 11:07:27;;;;;;;9.87;4.90;;;;;;;9.80;63.34;94406.56;5095408;28;20224;-78
2021/03/24 11:09:59;;;;;;;10.35;4.63;;;;;;;10.22;62.05;94408.69;5093786;28;20982;-76
2021/03/24 11:12:36;;;;;;;12.10;5.70;;;;;;;10.12;62.94;94407.16;5095075;28;20669;-77
2021/03/24 11:15:07;;;;;;;12.17;4.90;;;;;;;10.13;65.51;94400.16;5095110;28;20250;-78
2021/03/24 11:17:40;;;;;;;11.37;3.97;;;;;;;10.38;64.37;94394.69;5094909;28;20216;-78
2021/03/24 11:20:10;;;;;;;9.13;4.90;;;;;;;10.36;58.95;94403.50;5094622;28;20242;-78
2021/03/24 11:22:45;;;;;;;11.50;4.50;;;;;;;10.14;60.66;94407.00;5095203;28;20194;-78
2021/03/24 11:25:21;;;;;;;10.47;4.60;;;;;;;10.28;62.20;94397.53;5094911;28;20259;-76
2021/03/24 11:27:51;;;;;;;13.63;4.63;;;;;;;10.38;59.26;94398.09;5094763;28;20198;-76
2021/03/24 11:30:32;;;;;;;10.07;4.90;;;;;;;10.45;61.61;94396.34;5094962;28;20206;-77
2021/03/24 11:33:15;;;;;;;8.50;3.70;;;;;;;10.52;60.49;94389.41;5094718;28;20224;-79
2021/03/24 11:35:53;;;;;;;10.90;5.20;;;;;;;10.63;61.52;94397.75;5094738;28;20569;-78
2021/03/24 11:38:26;;;;;;;12.17;4.97;;;;;;;10.61;60.32;94387.50;5094280;28;20198;-77
2021/03/24 11:41:05;;;;;;;11.40;4.70;;;;;;;10.51;62.47;94387.78;5094547;28;20251;-76
2021/03/24 11:43:34;;;;;;;9.33;4.43;;;;;;;10.49;61.42;94386.34;5093643;28;20198;-77
2021/03/24 11:46:16;;;;;;;10.87;5.27;;;;;;;10.73;59.39;94388.59;5094485;28;20209;-78
2021/03/24 11:49:03;;;;;;;14.00;5.30;;;;;;;10.64;59.62;94389.75;5094334;28;20202;-78
2021/03/24 11:51:39;;;;;;;12.87;4.83;;;;;;;10.54;60.04;94383.97;5083847;28;20209;-78
2021/03/24 11:54:27;;;;;;;14.27;5.17;;;;;;;10.63;61.01;94382.88;5094391;28;20210;-78